sensor_id;sensor_type;location;lat;lon;timestamp;temperature;humidity
4376;DHT22;2202;50.866;12.750;2022-07-03T00:00:32;16.40;65.80
4376;DHT22;2202;50.866;12.750;2022-07-03T00:02:59;16.40;65.80
4376;DHT22;2202;50.866;12.750;2022-07-03T00:05:26;16.40;66.40
4376;DHT22;2202;50.866;12.750;2022-07-03T00:07:52;16.40;66.20
4376;DHT22;2202;50.866;12.750;2022-07-03T00:10:21;16.40;66.00
4376;DHT22;2202;50.866;12.750;2022-07-03T00:12:48;16.40;66.60
4376;DHT22;2202;50.866;12.750;2022-07-03T00:15:15;16.40;66.60
4376;DHT22;2202;50.866;12.750;2022-07-03T00:17:41;16.40;65.60
4376;DHT22;2202;50.866;12.750;2022-07-03T00:20:09;16.40;65.80
4376;DHT22;2202;50.866;12.750;2022-07-03T00:22:41;16.40;66.20
4376;DHT22;2202;50.866;12.750;2022-07-03T00:25:12;16.40;65.80
4376;DHT22;2202;50.866;12.750;2022-07-03T00:27:43;16.40;65.00
4376;DHT22;2202;50.866;12.750;2022-07-03T00:30:11;16.50;65.20
4376;DHT22;2202;50.866;12.750;2022-07-03T00:32:40;16.50;66.40
4376;DHT22;2202;50.866;12.750;2022-07-03T00:35:08;16.50;64.60
4376;DHT22;2202;50.866;12.750;2022-07-03T00:37:35;16.50;65.60
4376;DHT22;2202;50.866;12.750;2022-07-03T00:40:03;16.60;65.20
4376;DHT22;2202;50.866;12.750;2022-07-03T00:42:30;16.60;65.40
4376;DHT22;2202;50.866;12.750;2022-07-03T00:45:00;16.60;65.40
4376;DHT22;2202;50.866;12.750;2022-07-03T00:47:27;16.60;65.00
4376;DHT22;2202;50.866;12.750;2022-07-03T00:49:55;16.60;65.00
4376;DHT22;2202;50.866;12.750;2022-07-03T00:52:23;16.60;65.00
4376;DHT22;2202;50.866;12.750;2022-07-03T00:54:52;16.60;64.80
4376;DHT22;2202;50.866;12.750;2022-07-03T00:57:21;16.60;65.00
4376;DHT22;2202;50.866;12.750;2022-07-03T00:59:48;16.70;64.40
4376;DHT22;2202;50.866;12.750;2022-07-03T01:02:27;16.60;65.40
4376;DHT22;2202;50.866;12.750;2022-07-03T01:05:03;16.60;65.20
4376;DHT22;2202;50.866;12.750;2022-07-03T01:07:39;16.60;65.60
4376;DHT22;2202;50.866;12.750;2022-07-03T01:10:16;16.60;65.40
4376;DHT22;2202;50.866;12.750;2022-07-03T01:12:53;16.50;65.80
4376;DHT22;2202;50.866;12.750;2022-07-03T01:15:30;16.50;65.60
4376;DHT22;2202;50.866;12.750;2022-07-03T01:18:15;16.50;65.80
4376;DHT22;2202;50.866;12.750;2022-07-03T01:20:52;16.50;66.00
4376;DHT22;2202;50.866;12.750;2022-07-03T01:23:24;16.50;66.40
4376;DHT22;2202;50.866;12.750;2022-07-03T01:26:01;16.40;66.20
4376;DHT22;2202;50.866;12.750;2022-07-03T01:28:31;16.40;65.80
4376;DHT22;2202;50.866;12.750;2022-07-03T01:31:01;16.40;66.60
4376;DHT22;2202;50.866;12.750;2022-07-03T01:33:32;16.30;66.80
4376;DHT22;2202;50.866;12.750;2022-07-03T01:36:04;16.30;66.80
4376;DHT22;2202;50.866;12.750;2022-07-03T01:38:33;16.30;66.80
4376;DHT22;2202;50.866;12.750;2022-07-03T01:41:03;16.30;66.60
4376;DHT22;2202;50.866;12.750;2022-07-03T01:43:31;16.20;67.00
4376;DHT22;2202;50.866;12.750;2022-07-03T01:46:00;16.20;67.00
4376;DHT22;2202;50.866;12.750;2022-07-03T01:48:28;16.20;66.80
4376;DHT22;2202;50.866;12.750;2022-07-03T01:50:56;16.20;66.40
4376;DHT22;2202;50.866;12.750;2022-07-03T01:53:25;16.20;66.80
4376;DHT22;2202;50.866;12.750;2022-07-03T01:55:55;16.20;66.60
4376;DHT22;2202;50.866;12.750;2022-07-03T01:58:23;16.20;66.20
4376;DHT22;2202;50.866;12.750;2022-07-03T02:00:57;16.20;66.40
4376;DHT22;2202;50.866;12.750;2022-07-03T02:03:28;16.20;66.00
4376;DHT22;2202;50.866;12.750;2022-07-03T02:06:02;16.20;66.40
4376;DHT22;2202;50.866;12.750;2022-07-03T02:08:43;16.20;66.20
4376;DHT22;2202;50.866;12.750;2022-07-03T02:11:14;16.10;66.20
4376;DHT22;2202;50.866;12.750;2022-07-03T02:13:51;16.10;66.80
4376;DHT22;2202;50.866;12.750;2022-07-03T02:16:20;16.10;67.20
4376;DHT22;2202;50.866;12.750;2022-07-03T02:18:54;16.10;67.00
4376;DHT22;2202;50.866;12.750;2022-07-03T02:21:26;16.10;66.80
4376;DHT22;2202;50.866;12.750;2022-07-03T02:24:02;16.10;66.60
4376;DHT22;2202;50.866;12.750;2022-07-03T02:26:33;16.00;67.00
4376;DHT22;2202;50.866;12.750;2022-07-03T02:29:04;16.00;66.80
4376;DHT22;2202;50.866;12.750;2022-07-03T02:31:37;16.00;67.20
4376;DHT22;2202;50.866;12.750;2022-07-03T02:34:07;16.00;67.00
4376;DHT22;2202;50.866;12.750;2022-07-03T02:36:35;16.00;66.40
4376;DHT22;2202;50.866;12.750;2022-07-03T02:39:04;16.00;66.60
4376;DHT22;2202;50.866;12.750;2022-07-03T02:41:45;16.00;66.40
4376;DHT22;2202;50.866;12.750;2022-07-03T02:44:23;16.00;66.40
4376;DHT22;2202;50.866;12.750;2022-07-03T02:46:59;16.00;66.60
4376;DHT22;2202;50.866;12.750;2022-07-03T02:49:41;16.00;66.40
4376;DHT22;2202;50.866;12.750;2022-07-03T02:52:14;16.00;66.40
4376;DHT22;2202;50.866;12.750;2022-07-03T02:54:45;16.00;67.20
4376;DHT22;2202;50.866;12.750;2022-07-03T02:57:14;16.00;67.80
4376;DHT22;2202;50.866;12.750;2022-07-03T02:59:53;15.90;66.80
4376;DHT22;2202;50.866;12.750;2022-07-03T03:02:35;15.90;66.60
4376;DHT22;2202;50.866;12.750;2022-07-03T03:05:06;15.90;67.00
4376;DHT22;2202;50.866;12.750;2022-07-03T03:07:35;16.00;66.60
4376;DHT22;2202;50.866;12.750;2022-07-03T03:10:04;16.00;66.40
4376;DHT22;2202;50.866;12.750;2022-07-03T03:12:36;16.10;65.80
4376;DHT22;2202;50.866;12.750;2022-07-03T03:15:06;16.10;65.40
4376;DHT22;2202;50.866;12.750;2022-07-03T03:17:39;16.10;65.00
4376;DHT22;2202;50.866;12.750;2022-07-03T03:20:08;16.20;64.80
4376;DHT22;2202;50.866;12.750;2022-07-03T03:22:56;16.30;64.40
4376;DHT22;2202;50.866;12.750;2022-07-03T03:25:25;16.30;64.20
4376;DHT22;2202;50.866;12.750;2022-07-03T03:27:52;16.30;64.20
4376;DHT22;2202;50.866;12.750;2022-07-03T03:30:20;16.30;64.20
4376;DHT22;2202;50.866;12.750;2022-07-03T03:32:47;16.40;63.60
4376;DHT22;2202;50.866;12.750;2022-07-03T03:35:14;16.50;63.40
4376;DHT22;2202;50.866;12.750;2022-07-03T03:37:42;16.50;63.40
4376;DHT22;2202;50.866;12.750;2022-07-03T03:40:10;16.60;63.40
4376;DHT22;2202;50.866;12.750;2022-07-03T03:42:38;16.60;63.00
4376;DHT22;2202;50.866;12.750;2022-07-03T03:45:05;16.60;62.80
4376;DHT22;2202;50.866;12.750;2022-07-03T03:47:34;16.60;63.40
4376;DHT22;2202;50.866;12.750;2022-07-03T03:50:02;16.60;63.60
4376;DHT22;2202;50.866;12.750;2022-07-03T03:52:29;16.60;62.80
4376;DHT22;2202;50.866;12.750;2022-07-03T03:54:56;16.70;62.40
4376;DHT22;2202;50.866;12.750;2022-07-03T03:57:24;16.70;63.20
4376;DHT22;2202;50.866;12.750;2022-07-03T03:59:52;16.70;63.60
4376;DHT22;2202;50.866;12.750;2022-07-03T04:02:19;16.70;63.20
4376;DHT22;2202;50.866;12.750;2022-07-03T04:04:47;16.80;62.60
4376;DHT22;2202;50.866;12.750;2022-07-03T04:07:14;16.80;63.40
4376;DHT22;2202;50.866;12.750;2022-07-03T04:09:41;16.80;63.40
4376;DHT22;2202;50.866;12.750;2022-07-03T04:12:08;16.80;63.60
4376;DHT22;2202;50.866;12.750;2022-07-03T04:14:35;16.80;63.60
4376;DHT22;2202;50.866;12.750;2022-07-03T04:17:03;16.80;64.20
4376;DHT22;2202;50.866;12.750;2022-07-03T04:19:30;16.80;63.20
4376;DHT22;2202;50.866;12.750;2022-07-03T04:21:58;16.90;64.00
4376;DHT22;2202;50.866;12.750;2022-07-03T04:24:25;16.90;64.20
4376;DHT22;2202;50.866;12.750;2022-07-03T04:26:52;16.90;64.00
4376;DHT22;2202;50.866;12.750;2022-07-03T04:29:19;17.00;63.60
4376;DHT22;2202;50.866;12.750;2022-07-03T04:31:46;17.00;64.00
4376;DHT22;2202;50.866;12.750;2022-07-03T04:34:13;17.00;64.20
4376;DHT22;2202;50.866;12.750;2022-07-03T04:36:40;17.10;64.00
4376;DHT22;2202;50.866;12.750;2022-07-03T04:39:08;17.10;64.20
4376;DHT22;2202;50.866;12.750;2022-07-03T04:41:35;17.10;64.00
4376;DHT22;2202;50.866;12.750;2022-07-03T04:44:02;17.20;64.40
4376;DHT22;2202;50.866;12.750;2022-07-03T04:46:28;17.30;63.60
4376;DHT22;2202;50.866;12.750;2022-07-03T04:48:55;17.30;64.00
4376;DHT22;2202;50.866;12.750;2022-07-03T04:51:22;17.40;64.00
4376;DHT22;2202;50.866;12.750;2022-07-03T04:53:49;17.40;63.40
4376;DHT22;2202;50.866;12.750;2022-07-03T04:56:17;17.50;64.00
4376;DHT22;2202;50.866;12.750;2022-07-03T04:58:44;17.50;64.20
4376;DHT22;2202;50.866;12.750;2022-07-03T05:01:11;17.60;63.60
4376;DHT22;2202;50.866;12.750;2022-07-03T05:03:38;17.60;64.00
4376;DHT22;2202;50.866;12.750;2022-07-03T05:06:05;17.70;62.60
4376;DHT22;2202;50.866;12.750;2022-07-03T05:08:32;17.80;62.80
4376;DHT22;2202;50.866;12.750;2022-07-03T05:10:59;17.90;63.00
4376;DHT22;2202;50.866;12.750;2022-07-03T05:13:27;17.90;63.60
4376;DHT22;2202;50.866;12.750;2022-07-03T05:15:54;18.00;63.20
4376;DHT22;2202;50.866;12.750;2022-07-03T05:18:21;18.10;62.60
4376;DHT22;2202;50.866;12.750;2022-07-03T05:20:48;18.20;61.00
4376;DHT22;2202;50.866;12.750;2022-07-03T05:23:15;18.20;61.40
4376;DHT22;2202;50.866;12.750;2022-07-03T05:25:42;18.30;62.00
4376;DHT22;2202;50.866;12.750;2022-07-03T05:28:09;18.40;61.40
4376;DHT22;2202;50.866;12.750;2022-07-03T05:30:37;18.50;61.00
4376;DHT22;2202;50.866;12.750;2022-07-03T05:33:04;18.50;61.20
4376;DHT22;2202;50.866;12.750;2022-07-03T05:35:31;18.60;61.40
4376;DHT22;2202;50.866;12.750;2022-07-03T05:37:58;18.70;60.80
4376;DHT22;2202;50.866;12.750;2022-07-03T05:40:24;18.80;61.00
4376;DHT22;2202;50.866;12.750;2022-07-03T05:42:51;18.90;61.20
4376;DHT22;2202;50.866;12.750;2022-07-03T05:45:19;19.00;60.80
4376;DHT22;2202;50.866;12.750;2022-07-03T05:47:47;19.10;60.60
4376;DHT22;2202;50.866;12.750;2022-07-03T05:50:14;19.20;59.90
4376;DHT22;2202;50.866;12.750;2022-07-03T05:52:41;19.30;59.60
4376;DHT22;2202;50.866;12.750;2022-07-03T05:55:08;19.40;59.20
4376;DHT22;2202;50.866;12.750;2022-07-03T05:57:35;19.50;59.90
4376;DHT22;2202;50.866;12.750;2022-07-03T06:00:03;19.70;59.40
4376;DHT22;2202;50.866;12.750;2022-07-03T06:02:30;19.80;58.20
4376;DHT22;2202;50.866;12.750;2022-07-03T06:04:59;19.90;59.00
4376;DHT22;2202;50.866;12.750;2022-07-03T06:07:25;19.90;58.50
4376;DHT22;2202;50.866;12.750;2022-07-03T06:09:52;20.00;58.30
4376;DHT22;2202;50.866;12.750;2022-07-03T06:12:19;20.20;58.70
4376;DHT22;2202;50.866;12.750;2022-07-03T06:14:46;20.30;59.80
4376;DHT22;2202;50.866;12.750;2022-07-03T06:17:13;20.40;58.30
4376;DHT22;2202;50.866;12.750;2022-07-03T06:19:40;20.50;57.40
4376;DHT22;2202;50.866;12.750;2022-07-03T06:22:08;20.70;58.00
4376;DHT22;2202;50.866;12.750;2022-07-03T06:24:35;20.80;56.40
4376;DHT22;2202;50.866;12.750;2022-07-03T06:27:02;21.00;55.90
4376;DHT22;2202;50.866;12.750;2022-07-03T06:29:28;21.10;53.90
4376;DHT22;2202;50.866;12.750;2022-07-03T06:31:55;21.30;54.30
4376;DHT22;2202;50.866;12.750;2022-07-03T06:34:22;21.50;53.20
4376;DHT22;2202;50.866;12.750;2022-07-03T06:36:49;21.70;52.30
4376;DHT22;2202;50.866;12.750;2022-07-03T06:39:17;21.90;52.10
4376;DHT22;2202;50.866;12.750;2022-07-03T06:41:44;22.20;53.90
4376;DHT22;2202;50.866;12.750;2022-07-03T06:44:11;22.50;53.40
4376;DHT22;2202;50.866;12.750;2022-07-03T06:46:38;22.70;48.00
4376;DHT22;2202;50.866;12.750;2022-07-03T06:49:05;23.00;49.60
4376;DHT22;2202;50.866;12.750;2022-07-03T06:51:31;23.10;46.30
4376;DHT22;2202;50.866;12.750;2022-07-03T06:53:59;23.10;46.80
4376;DHT22;2202;50.866;12.750;2022-07-03T06:56:27;23.20;49.60
4376;DHT22;2202;50.866;12.750;2022-07-03T06:58:54;23.20;44.80
4376;DHT22;2202;50.866;12.750;2022-07-03T07:01:21;23.50;47.00
4376;DHT22;2202;50.866;12.750;2022-07-03T07:03:48;23.80;45.60
4376;DHT22;2202;50.866;12.750;2022-07-03T07:06:15;24.00;45.40
4376;DHT22;2202;50.866;12.750;2022-07-03T07:08:42;24.30;46.60
4376;DHT22;2202;50.866;12.750;2022-07-03T07:11:08;24.50;46.40
4376;DHT22;2202;50.866;12.750;2022-07-03T07:13:37;24.40;43.80
4376;DHT22;2202;50.866;12.750;2022-07-03T07:16:04;24.30;46.60
4376;DHT22;2202;50.866;12.750;2022-07-03T07:18:31;24.50;44.10
4376;DHT22;2202;50.866;12.750;2022-07-03T07:20:59;24.80;45.40
4376;DHT22;2202;50.866;12.750;2022-07-03T07:23:26;25.00;46.10
4376;DHT22;2202;50.866;12.750;2022-07-03T07:25:53;25.30;45.20
4376;DHT22;2202;50.866;12.750;2022-07-03T07:28:20;25.20;42.20
4376;DHT22;2202;50.866;12.750;2022-07-03T07:30:48;25.00;42.70
4376;DHT22;2202;50.866;12.750;2022-07-03T07:33:15;25.10;47.30
4376;DHT22;2202;50.866;12.750;2022-07-03T07:35:42;25.30;43.60
4376;DHT22;2202;50.866;12.750;2022-07-03T07:38:09;25.30;43.60
4376;DHT22;2202;50.866;12.750;2022-07-03T07:40:36;25.50;42.70
4376;DHT22;2202;50.866;12.750;2022-07-03T07:43:03;25.50;42.70
4376;DHT22;2202;50.866;12.750;2022-07-03T07:45:30;25.30;43.80
4376;DHT22;2202;50.866;12.750;2022-07-03T07:47:58;25.10;42.00
4376;DHT22;2202;50.866;12.750;2022-07-03T07:50:26;25.10;44.00
4376;DHT22;2202;50.866;12.750;2022-07-03T07:52:53;25.00;46.30
4376;DHT22;2202;50.866;12.750;2022-07-03T07:55:20;25.10;44.70
4376;DHT22;2202;50.866;12.750;2022-07-03T07:57:47;25.30;43.40
4376;DHT22;2202;50.866;12.750;2022-07-03T08:00:16;25.60;42.50
4376;DHT22;2202;50.866;12.750;2022-07-03T08:02:44;25.80;40.10
4376;DHT22;2202;50.866;12.750;2022-07-03T08:05:30;25.60;43.10
4376;DHT22;2202;50.866;12.750;2022-07-03T08:08:09;25.20;43.40
4376;DHT22;2202;50.866;12.750;2022-07-03T08:10:38;25.60;42.90
4376;DHT22;2202;50.866;12.750;2022-07-03T08:13:06;25.60;42.40
4376;DHT22;2202;50.866;12.750;2022-07-03T08:15:33;25.80;42.50
4376;DHT22;2202;50.866;12.750;2022-07-03T08:18:00;26.00;46.60
4376;DHT22;2202;50.866;12.750;2022-07-03T08:20:30;26.10;42.40
4376;DHT22;2202;50.866;12.750;2022-07-03T08:22:57;26.10;40.40
4376;DHT22;2202;50.866;12.750;2022-07-03T08:25:24;26.30;39.30
4376;DHT22;2202;50.866;12.750;2022-07-03T08:27:51;26.70;40.40
4376;DHT22;2202;50.866;12.750;2022-07-03T08:30:19;26.60;39.30
4376;DHT22;2202;50.866;12.750;2022-07-03T08:32:48;26.60;40.20
4376;DHT22;2202;50.866;12.750;2022-07-03T08:35:16;27.00;37.20
4376;DHT22;2202;50.866;12.750;2022-07-03T08:37:44;27.40;37.90
4376;DHT22;2202;50.866;12.750;2022-07-03T08:40:13;27.80;36.30
4376;DHT22;2202;50.866;12.750;2022-07-03T08:42:43;28.20;36.00
4376;DHT22;2202;50.866;12.750;2022-07-03T08:45:13;28.30;34.70
4376;DHT22;2202;50.866;12.750;2022-07-03T08:47:42;28.30;35.10
4376;DHT22;2202;50.866;12.750;2022-07-03T08:50:10;27.80;37.90
4376;DHT22;2202;50.866;12.750;2022-07-03T08:52:37;27.40;38.80
4376;DHT22;2202;50.866;12.750;2022-07-03T08:55:06;27.90;37.20
4376;DHT22;2202;50.866;12.750;2022-07-03T08:57:36;27.50;34.70
4376;DHT22;2202;50.866;12.750;2022-07-03T09:00:05;27.20;35.60
4376;DHT22;2202;50.866;12.750;2022-07-03T09:02:35;27.20;35.40
4376;DHT22;2202;50.866;12.750;2022-07-03T09:05:03;26.90;35.10
4376;DHT22;2202;50.866;12.750;2022-07-03T09:07:35;26.90;39.20
4376;DHT22;2202;50.866;12.750;2022-07-03T09:10:03;27.20;37.20
4376;DHT22;2202;50.866;12.750;2022-07-03T09:12:32;27.60;35.10
4376;DHT22;2202;50.866;12.750;2022-07-03T09:14:59;27.90;36.00
4376;DHT22;2202;50.866;12.750;2022-07-03T09:17:27;27.40;34.20
4376;DHT22;2202;50.866;12.750;2022-07-03T09:19:54;27.60;33.50
4376;DHT22;2202;50.866;12.750;2022-07-03T09:22:22;27.90;31.50
4376;DHT22;2202;50.866;12.750;2022-07-03T09:24:51;28.00;37.90
4376;DHT22;2202;50.866;12.750;2022-07-03T09:27:19;27.80;34.70
4376;DHT22;2202;50.866;12.750;2022-07-03T09:30:00;27.90;36.30
4376;DHT22;2202;50.866;12.750;2022-07-03T09:32:31;28.00;36.10
4376;DHT22;2202;50.866;12.750;2022-07-03T09:35:17;28.40;36.50
4376;DHT22;2202;50.866;12.750;2022-07-03T09:37:51;28.40;35.40
4376;DHT22;2202;50.866;12.750;2022-07-03T09:40:19;28.50;33.10
4376;DHT22;2202;50.866;12.750;2022-07-03T09:42:59;28.70;31.40
4376;DHT22;2202;50.866;12.750;2022-07-03T09:45:48;29.00;34.90
4376;DHT22;2202;50.866;12.750;2022-07-03T09:48:37;29.40;31.20
4376;DHT22;2202;50.866;12.750;2022-07-03T09:51:16;29.10;29.60
4376;DHT22;2202;50.866;12.750;2022-07-03T09:53:48;28.10;32.40
4376;DHT22;2202;50.866;12.750;2022-07-03T09:56:15;28.20;35.30
4376;DHT22;2202;50.866;12.750;2022-07-03T09:59:01;28.10;32.80
4376;DHT22;2202;50.866;12.750;2022-07-03T10:01:29;27.90;30.80
4376;DHT22;2202;50.866;12.750;2022-07-03T10:04:18;27.80;33.30
4376;DHT22;2202;50.866;12.750;2022-07-03T10:06:51;27.90;30.60
4376;DHT22;2202;50.866;12.750;2022-07-03T10:09:19;28.10;31.20
4376;DHT22;2202;50.866;12.750;2022-07-03T10:11:47;28.30;30.10
4376;DHT22;2202;50.866;12.750;2022-07-03T10:14:15;28.30;28.70
4376;DHT22;2202;50.866;12.750;2022-07-03T10:16:44;28.20;28.60
4376;DHT22;2202;50.866;12.750;2022-07-03T10:19:13;28.30;28.80
4376;DHT22;2202;50.866;12.750;2022-07-03T10:21:42;27.90;29.60
4376;DHT22;2202;50.866;12.750;2022-07-03T10:24:11;27.50;30.30
4376;DHT22;2202;50.866;12.750;2022-07-03T10:26:39;27.60;32.20
4376;DHT22;2202;50.866;12.750;2022-07-03T10:29:08;27.90;31.90
4376;DHT22;2202;50.866;12.750;2022-07-03T10:31:37;27.90;31.90
4376;DHT22;2202;50.866;12.750;2022-07-03T10:34:06;27.70;32.20
4376;DHT22;2202;50.866;12.750;2022-07-03T10:36:34;27.90;31.90
4376;DHT22;2202;50.866;12.750;2022-07-03T10:39:06;28.00;31.70
4376;DHT22;2202;50.866;12.750;2022-07-03T10:41:35;28.20;31.40
4376;DHT22;2202;50.866;12.750;2022-07-03T10:44:21;28.40;32.20
4376;DHT22;2202;50.866;12.750;2022-07-03T10:47:05;28.30;31.40
4376;DHT22;2202;50.866;12.750;2022-07-03T10:49:33;28.40;32.60
4376;DHT22;2202;50.866;12.750;2022-07-03T10:52:02;28.30;31.90
4376;DHT22;2202;50.866;12.750;2022-07-03T10:54:30;28.70;33.10
4376;DHT22;2202;50.866;12.750;2022-07-03T10:57:09;28.10;31.90
4376;DHT22;2202;50.866;12.750;2022-07-03T10:59:59;27.20;35.30
4376;DHT22;2202;50.866;12.750;2022-07-03T11:02:29;27.50;36.00
4376;DHT22;2202;50.866;12.750;2022-07-03T11:05:18;27.70;33.30
4376;DHT22;2202;50.866;12.750;2022-07-03T11:08:05;28.00;31.70
4376;DHT22;2202;50.866;12.750;2022-07-03T11:10:34;27.10;32.60
4376;DHT22;2202;50.866;12.750;2022-07-03T11:13:07;26.40;35.40
4376;DHT22;2202;50.866;12.750;2022-07-03T11:15:38;26.50;39.00
4376;DHT22;2202;50.866;12.750;2022-07-03T11:18:31;26.70;38.10
4376;DHT22;2202;50.866;12.750;2022-07-03T11:21:15;27.10;32.60
4376;DHT22;2202;50.866;12.750;2022-07-03T11:26:40;27.30;39.00
4376;DHT22;2202;50.866;12.750;2022-07-03T11:29:07;28.10;34.40
4376;DHT22;2202;50.866;12.750;2022-07-03T11:31:51;28.70;30.10
4376;DHT22;2202;50.866;12.750;2022-07-03T11:34:19;28.80;32.10
4376;DHT22;2202;50.866;12.750;2022-07-03T11:36:48;29.20;33.80
4376;DHT22;2202;50.866;12.750;2022-07-03T11:39:19;29.60;28.60
4376;DHT22;2202;50.866;12.750;2022-07-03T11:41:47;29.10;29.40
4376;DHT22;2202;50.866;12.750;2022-07-03T11:44:16;28.90;31.40
4376;DHT22;2202;50.866;12.750;2022-07-03T11:46:48;28.90;29.10
4376;DHT22;2202;50.866;12.750;2022-07-03T11:49:16;29.10;28.80
4376;DHT22;2202;50.866;12.750;2022-07-03T11:51:58;29.20;31.90
4376;DHT22;2202;50.866;12.750;2022-07-03T11:54:26;29.40;28.30
4376;DHT22;2202;50.866;12.750;2022-07-03T11:56:55;29.40;29.40
4376;DHT22;2202;50.866;12.750;2022-07-03T11:59:22;29.80;31.50
4376;DHT22;2202;50.866;12.750;2022-07-03T12:01:49;29.60;29.60
4376;DHT22;2202;50.866;12.750;2022-07-03T12:04:19;29.60;29.20
4376;DHT22;2202;50.866;12.750;2022-07-03T12:06:48;29.70;28.40
4376;DHT22;2202;50.866;12.750;2022-07-03T12:09:20;29.70;27.50
4376;DHT22;2202;50.866;12.750;2022-07-03T12:11:57;29.40;27.80
4376;DHT22;2202;50.866;12.750;2022-07-03T12:14:35;29.20;29.20
4376;DHT22;2202;50.866;12.750;2022-07-03T12:17:02;29.20;29.60
4376;DHT22;2202;50.866;12.750;2022-07-03T12:19:29;29.30;29.90
4376;DHT22;2202;50.866;12.750;2022-07-03T12:21:56;29.50;31.00
4376;DHT22;2202;50.866;12.750;2022-07-03T12:24:25;29.80;29.60
4376;DHT22;2202;50.866;12.750;2022-07-03T12:26:52;30.00;28.50
4376;DHT22;2202;50.866;12.750;2022-07-03T12:29:19;30.10;32.60
4376;DHT22;2202;50.866;12.750;2022-07-03T12:31:47;29.50;28.20
4376;DHT22;2202;50.866;12.750;2022-07-03T12:34:16;29.30;28.00
4376;DHT22;2202;50.866;12.750;2022-07-03T12:36:54;28.60;29.10
4376;DHT22;2202;50.866;12.750;2022-07-03T12:39:22;28.60;28.00
4376;DHT22;2202;50.866;12.750;2022-07-03T12:41:50;28.70;29.60
4376;DHT22;2202;50.866;12.750;2022-07-03T12:44:17;29.10;29.60
4376;DHT22;2202;50.866;12.750;2022-07-03T12:46:46;29.10;29.40
4376;DHT22;2202;50.866;12.750;2022-07-03T12:49:15;29.00;28.90
4376;DHT22;2202;50.866;12.750;2022-07-03T12:51:44;29.00;29.30
4376;DHT22;2202;50.866;12.750;2022-07-03T12:54:12;28.90;30.80
4376;DHT22;2202;50.866;12.750;2022-07-03T12:56:40;29.20;29.10
4376;DHT22;2202;50.866;12.750;2022-07-03T12:59:24;29.60;28.40
4376;DHT22;2202;50.866;12.750;2022-07-03T13:02:01;29.30;31.40
4376;DHT22;2202;50.866;12.750;2022-07-03T13:04:35;29.90;27.60
4376;DHT22;2202;50.866;12.750;2022-07-03T13:07:04;30.30;28.10
4376;DHT22;2202;50.866;12.750;2022-07-03T13:09:31;30.30;28.90
4376;DHT22;2202;50.866;12.750;2022-07-03T13:11:58;30.50;28.90
4376;DHT22;2202;50.866;12.750;2022-07-03T13:14:27;30.50;27.40
4376;DHT22;2202;50.866;12.750;2022-07-03T13:16:55;30.50;27.60
4376;DHT22;2202;50.866;12.750;2022-07-03T13:19:24;29.90;28.70
4376;DHT22;2202;50.866;12.750;2022-07-03T13:21:54;29.70;29.00
4376;DHT22;2202;50.866;12.750;2022-07-03T13:24:21;29.80;28.20
4376;DHT22;2202;50.866;12.750;2022-07-03T13:26:49;30.00;30.60
4376;DHT22;2202;50.866;12.750;2022-07-03T13:29:16;29.90;28.40
4376;DHT22;2202;50.866;12.750;2022-07-03T13:31:45;29.60;27.90
4376;DHT22;2202;50.866;12.750;2022-07-03T13:34:12;29.10;28.20
4376;DHT22;2202;50.866;12.750;2022-07-03T13:36:39;29.30;32.10
4376;DHT22;2202;50.866;12.750;2022-07-03T13:39:06;29.70;28.10
4376;DHT22;2202;50.866;12.750;2022-07-03T13:41:34;30.40;26.70
4376;DHT22;2202;50.866;12.750;2022-07-03T13:44:01;31.00;26.60
4376;DHT22;2202;50.866;12.750;2022-07-03T13:46:28;31.50;25.70
4376;DHT22;2202;50.866;12.750;2022-07-03T13:48:56;31.70;25.90
4376;DHT22;2202;50.866;12.750;2022-07-03T13:51:23;30.90;28.10
4376;DHT22;2202;50.866;12.750;2022-07-03T13:53:50;30.70;27.90
4376;DHT22;2202;50.866;12.750;2022-07-03T13:56:17;30.10;28.50
4376;DHT22;2202;50.866;12.750;2022-07-03T13:58:44;30.20;29.30
4376;DHT22;2202;50.866;12.750;2022-07-03T14:01:12;30.30;29.40
4376;DHT22;2202;50.866;12.750;2022-07-03T14:03:39;30.80;27.60
4376;DHT22;2202;50.866;12.750;2022-07-03T14:06:07;30.90;26.60
4376;DHT22;2202;50.866;12.750;2022-07-03T14:08:34;31.20;27.10
4376;DHT22;2202;50.866;12.750;2022-07-03T14:11:01;31.20;26.20
4376;DHT22;2202;50.866;12.750;2022-07-03T14:13:28;31.30;25.60
4376;DHT22;2202;50.866;12.750;2022-07-03T14:15:55;31.00;26.70
4376;DHT22;2202;50.866;12.750;2022-07-03T14:18:22;30.90;25.70
4376;DHT22;2202;50.866;12.750;2022-07-03T14:20:49;31.00;26.80
4376;DHT22;2202;50.866;12.750;2022-07-03T14:23:17;31.20;27.10
4376;DHT22;2202;50.866;12.750;2022-07-03T14:25:44;31.20;25.70
4376;DHT22;2202;50.866;12.750;2022-07-03T14:28:11;31.10;25.30
4376;DHT22;2202;50.866;12.750;2022-07-03T14:30:55;31.20;25.40
4376;DHT22;2202;50.866;12.750;2022-07-03T14:33:39;31.30;25.50
4376;DHT22;2202;50.866;12.750;2022-07-03T14:36:06;30.60;24.70
4376;DHT22;2202;50.866;12.750;2022-07-03T14:38:34;30.40;26.40
4376;DHT22;2202;50.866;12.750;2022-07-03T14:41:01;30.30;27.20
4376;DHT22;2202;50.866;12.750;2022-07-03T14:43:28;30.40;27.50
4376;DHT22;2202;50.866;12.750;2022-07-03T14:45:55;30.70;26.20
4376;DHT22;2202;50.866;12.750;2022-07-03T14:48:22;30.80;26.00
4376;DHT22;2202;50.866;12.750;2022-07-03T14:50:50;30.80;25.40
4376;DHT22;2202;50.866;12.750;2022-07-03T14:53:17;30.90;26.40
4376;DHT22;2202;50.866;12.750;2022-07-03T14:55:46;31.00;26.90
4376;DHT22;2202;50.866;12.750;2022-07-03T14:58:17;31.30;26.60
4376;DHT22;2202;50.866;12.750;2022-07-03T15:00:48;31.40;26.20
4376;DHT22;2202;50.866;12.750;2022-07-03T15:03:22;31.40;25.60
4376;DHT22;2202;50.866;12.750;2022-07-03T15:05:51;31.40;25.40
4376;DHT22;2202;50.866;12.750;2022-07-03T15:08:42;31.10;23.40
4376;DHT22;2202;50.866;12.750;2022-07-03T15:11:18;30.70;26.60
4376;DHT22;2202;50.866;12.750;2022-07-03T15:14:03;31.00;25.80
4376;DHT22;2202;50.866;12.750;2022-07-03T15:16:32;31.30;26.90
4376;DHT22;2202;50.866;12.750;2022-07-03T15:18:59;31.30;24.90
4376;DHT22;2202;50.866;12.750;2022-07-03T15:21:29;31.30;24.70
4376;DHT22;2202;50.866;12.750;2022-07-03T15:23:58;31.20;26.10
4376;DHT22;2202;50.866;12.750;2022-07-03T15:26:28;31.20;26.30
4376;DHT22;2202;50.866;12.750;2022-07-03T15:28:58;31.20;24.70
4376;DHT22;2202;50.866;12.750;2022-07-03T15:31:26;31.20;27.80
4376;DHT22;2202;50.866;12.750;2022-07-03T15:33:53;31.50;25.50
4376;DHT22;2202;50.866;12.750;2022-07-03T15:36:25;31.70;25.90
4376;DHT22;2202;50.866;12.750;2022-07-03T15:38:58;31.90;24.60
4376;DHT22;2202;50.866;12.750;2022-07-03T15:41:38;31.80;23.00
4376;DHT22;2202;50.866;12.750;2022-07-03T15:44:17;31.60;23.90
4376;DHT22;2202;50.866;12.750;2022-07-03T15:46:58;31.30;24.50
4376;DHT22;2202;50.866;12.750;2022-07-03T15:49:30;30.70;24.60
4376;DHT22;2202;50.866;12.750;2022-07-03T15:52:09;30.50;25.50
4376;DHT22;2202;50.866;12.750;2022-07-03T15:54:44;30.60;24.00
4376;DHT22;2202;50.866;12.750;2022-07-03T15:57:19;30.50;25.10
4376;DHT22;2202;50.866;12.750;2022-07-03T15:59:48;30.20;24.90
4376;DHT22;2202;50.866;12.750;2022-07-03T16:02:21;30.20;24.30
4376;DHT22;2202;50.866;12.750;2022-07-03T16:05:04;30.00;24.60